sensor_id;sensor_type;location;lat;lon;timestamp;P1;durP1;ratioP1;P2;durP2;ratioP2
64157;SDS011;50449;51.528;5.076;2022-07-23T00:00:26;57.22;;;54.53;;
64157;SDS011;50449;51.528;5.076;2022-07-23T00:02:52;52.50;;;49.95;;
64157;SDS011;50449;51.528;5.076;2022-07-23T00:05:17;56.58;;;53.88;;
64157;SDS011;50449;51.528;5.076;2022-07-23T00:07:42;48.75;;;46.35;;
64157;SDS011;50449;51.528;5.076;2022-07-23T00:10:08;52.65;;;49.97;;
64157;SDS011;50449;51.528;5.076;2022-07-23T00:12:34;51.42;;;48.90;;
64157;SDS011;50449;51.528;5.076;2022-07-23T00:14:59;52.78;;;50.33;;
64157;SDS011;50449;51.528;5.076;2022-07-23T00:17:25;53.95;;;51.35;;
64157;SDS011;50449;51.528;5.076;2022-07-23T00:19:50;53.90;;;51.40;;
64157;SDS011;50449;51.528;5.076;2022-07-23T00:22:16;51.83;;;49.33;;
64157;SDS011;50449;51.528;5.076;2022-07-23T00:24:41;51.47;;;48.95;;
64157;SDS011;50449;51.528;5.076;2022-07-23T00:27:07;51.33;;;48.92;;
64157;SDS011;50449;51.528;5.076;2022-07-23T00:29:32;50.67;;;48.22;;
64157;SDS011;50449;51.528;5.076;2022-07-23T00:31:57;53.03;;;50.50;;
64157;SDS011;50449;51.528;5.076;2022-07-23T00:34:23;51.17;;;48.38;;
64157;SDS011;50449;51.528;5.076;2022-07-23T00:36:48;52.67;;;50.00;;
64157;SDS011;50449;51.528;5.076;2022-07-23T00:39:14;53.63;;;50.95;;
64157;SDS011;50449;51.528;5.076;2022-07-23T00:41:39;50.72;;;48.33;;
64157;SDS011;50449;51.528;5.076;2022-07-23T00:44:24;49.60;;;47.22;;
64157;SDS011;50449;51.528;5.076;2022-07-23T00:46:52;50.50;;;48.08;;
64157;SDS011;50449;51.528;5.076;2022-07-23T00:51:45;48.70;;;46.30;;
64157;SDS011;50449;51.528;5.076;2022-07-23T00:54:11;51.75;;;49.15;;
64157;SDS011;50449;51.528;5.076;2022-07-23T00:56:37;51.17;;;48.47;;
64157;SDS011;50449;51.528;5.076;2022-07-23T00:59:03;53.95;;;50.95;;
64157;SDS011;50449;51.528;5.076;2022-07-23T01:01:30;52.47;;;49.97;;
64157;SDS011;50449;51.528;5.076;2022-07-23T01:03:55;52.70;;;50.20;;
64157;SDS011;50449;51.528;5.076;2022-07-23T01:06:21;48.20;;;45.90;;
64157;SDS011;50449;51.528;5.076;2022-07-23T01:08:46;51.10;;;48.70;;
64157;SDS011;50449;51.528;5.076;2022-07-23T01:11:12;49.33;;;46.83;;
64157;SDS011;50449;51.528;5.076;2022-07-23T01:13:42;50.58;;;48.10;;
64157;SDS011;50449;51.528;5.076;2022-07-23T01:16:08;49.22;;;46.85;;
64157;SDS011;50449;51.528;5.076;2022-07-23T01:18:33;48.97;;;46.58;;
64157;SDS011;50449;51.528;5.076;2022-07-23T01:20:58;48.67;;;46.35;;
64157;SDS011;50449;51.528;5.076;2022-07-23T01:23:24;48.67;;;46.28;;
64157;SDS011;50449;51.528;5.076;2022-07-23T01:25:53;48.28;;;45.88;;
64157;SDS011;50449;51.528;5.076;2022-07-23T01:28:19;49.90;;;47.40;;
64157;SDS011;50449;51.528;5.076;2022-07-23T01:30:46;50.83;;;48.33;;
64157;SDS011;50449;51.528;5.076;2022-07-23T01:33:12;51.10;;;48.70;;
64157;SDS011;50449;51.528;5.076;2022-07-23T01:35:37;51.05;;;48.40;;
64157;SDS011;50449;51.528;5.076;2022-07-23T01:38:03;48.58;;;46.28;;
64157;SDS011;50449;51.528;5.076;2022-07-23T01:40:28;50.80;;;48.20;;
64157;SDS011;50449;51.528;5.076;2022-07-23T01:42:53;49.67;;;47.28;;
64157;SDS011;50449;51.528;5.076;2022-07-23T01:45:19;49.97;;;47.38;;
64157;SDS011;50449;51.528;5.076;2022-07-23T01:47:44;49.10;;;46.50;;
64157;SDS011;50449;51.528;5.076;2022-07-23T01:50:10;48.97;;;46.55;;
64157;SDS011;50449;51.528;5.076;2022-07-23T01:52:35;52.35;;;49.75;;
64157;SDS011;50449;51.528;5.076;2022-07-23T01:55:00;50.25;;;47.85;;
64157;SDS011;50449;51.528;5.076;2022-07-23T01:57:26;51.30;;;48.67;;
64157;SDS011;50449;51.528;5.076;2022-07-23T01:59:51;47.97;;;45.67;;
64157;SDS011;50449;51.528;5.076;2022-07-23T02:02:17;48.53;;;45.72;;
64157;SDS011;50449;51.528;5.076;2022-07-23T02:04:42;47.65;;;45.25;;
64157;SDS011;50449;51.528;5.076;2022-07-23T02:07:07;49.17;;;46.78;;
64157;SDS011;50449;51.528;5.076;2022-07-23T02:09:33;49.20;;;46.80;;
64157;SDS011;50449;51.528;5.076;2022-07-23T02:11:58;47.33;;;45.03;;
64157;SDS011;50449;51.528;5.076;2022-07-23T02:14:27;47.60;;;45.15;;
64157;SDS011;50449;51.528;5.076;2022-07-23T02:16:55;47.47;;;45.17;;
64157;SDS011;50449;51.528;5.076;2022-07-23T02:19:21;47.28;;;44.97;;
64157;SDS011;50449;51.528;5.076;2022-07-23T02:21:46;49.70;;;47.20;;
64157;SDS011;50449;51.528;5.076;2022-07-23T02:24:12;47.05;;;44.72;;
64157;SDS011;50449;51.528;5.076;2022-07-23T02:26:37;48.08;;;45.72;;
64157;SDS011;50449;51.528;5.076;2022-07-23T02:29:03;47.80;;;45.50;;
64157;SDS011;50449;51.528;5.076;2022-07-23T02:31:29;49.20;;;46.75;;
64157;SDS011;50449;51.528;5.076;2022-07-23T02:33:55;47.72;;;45.42;;
64157;SDS011;50449;51.528;5.076;2022-07-23T02:36:20;47.92;;;45.63;;
64157;SDS011;50449;51.528;5.076;2022-07-23T02:38:46;48.58;;;46.17;;
64157;SDS011;50449;51.528;5.076;2022-07-23T02:41:12;49.20;;;46.70;;
64157;SDS011;50449;51.528;5.076;2022-07-23T02:43:37;48.10;;;45.70;;
64157;SDS011;50449;51.528;5.076;2022-07-23T02:46:02;46.03;;;43.83;;
64157;SDS011;50449;51.528;5.076;2022-07-23T02:48:28;48.40;;;45.85;;
64157;SDS011;50449;51.528;5.076;2022-07-23T02:50:53;48.15;;;45.75;;
64157;SDS011;50449;51.528;5.076;2022-07-23T02:53:21;46.10;;;43.90;;
64157;SDS011;50449;51.528;5.076;2022-07-23T02:55:47;49.47;;;47.08;;
64157;SDS011;50449;51.528;5.076;2022-07-23T02:58:12;46.15;;;43.78;;
64157;SDS011;50449;51.528;5.076;2022-07-23T03:00:37;47.42;;;45.13;;
64157;SDS011;50449;51.528;5.076;2022-07-23T03:03:03;47.17;;;44.78;;
64157;SDS011;50449;51.528;5.076;2022-07-23T03:05:28;46.80;;;44.58;;
64157;SDS011;50449;51.528;5.076;2022-07-23T03:07:53;46.97;;;44.58;;
64157;SDS011;50449;51.528;5.076;2022-07-23T03:10:19;46.83;;;44.42;;
64157;SDS011;50449;51.528;5.076;2022-07-23T03:12:44;46.33;;;43.95;;
64157;SDS011;50449;51.528;5.076;2022-07-23T03:15:10;45.65;;;43.45;;
64157;SDS011;50449;51.528;5.076;2022-07-23T03:17:35;48.90;;;46.53;;
64157;SDS011;50449;51.528;5.076;2022-07-23T03:20:00;48.60;;;46.13;;
64157;SDS011;50449;51.528;5.076;2022-07-23T03:22:26;45.75;;;43.55;;
64157;SDS011;50449;51.528;5.076;2022-07-23T03:24:51;46.05;;;43.80;;
64157;SDS011;50449;51.528;5.076;2022-07-23T03:27:20;43.90;;;41.60;;
64157;SDS011;50449;51.528;5.076;2022-07-23T03:29:46;45.47;;;43.03;;
64157;SDS011;50449;51.528;5.076;2022-07-23T03:32:12;44.33;;;42.03;;
64157;SDS011;50449;51.528;5.076;2022-07-23T03:34:37;46.97;;;44.58;;
64157;SDS011;50449;51.528;5.076;2022-07-23T03:37:03;45.72;;;43.42;;
64157;SDS011;50449;51.528;5.076;2022-07-23T03:39:29;44.25;;;42.05;;
64157;SDS011;50449;51.528;5.076;2022-07-23T03:41:54;46.65;;;44.33;;
64157;SDS011;50449;51.528;5.076;2022-07-23T03:44:20;46.38;;;43.83;;
64157;SDS011;50449;51.528;5.076;2022-07-23T03:46:45;46.03;;;43.72;;
64157;SDS011;50449;51.528;5.076;2022-07-23T03:49:10;45.00;;;42.80;;
64157;SDS011;50449;51.528;5.076;2022-07-23T03:51:36;46.22;;;43.45;;
64157;SDS011;50449;51.528;5.076;2022-07-23T03:54:01;47.70;;;45.10;;
64157;SDS011;50449;51.528;5.076;2022-07-23T03:56:26;44.17;;;41.97;;
64157;SDS011;50449;51.528;5.076;2022-07-23T03:58:52;45.75;;;43.53;;
64157;SDS011;50449;51.528;5.076;2022-07-23T04:01:17;43.60;;;41.50;;
64157;SDS011;50449;51.528;5.076;2022-07-23T04:03:43;46.03;;;43.72;;
64157;SDS011;50449;51.528;5.076;2022-07-23T04:06:08;45.92;;;43.70;;
64157;SDS011;50449;51.528;5.076;2022-07-23T04:08:33;44.58;;;42.35;;
64157;SDS011;50449;51.528;5.076;2022-07-23T04:10:59;45.10;;;42.90;;
64157;SDS011;50449;51.528;5.076;2022-07-23T04:13:24;45.13;;;42.95;;
64157;SDS011;50449;51.528;5.076;2022-07-23T04:15:50;45.53;;;43.17;;
64157;SDS011;50449;51.528;5.076;2022-07-23T04:18:16;43.97;;;41.58;;
64157;SDS011;50449;51.528;5.076;2022-07-23T04:20:46;43.65;;;41.50;;
64157;SDS011;50449;51.528;5.076;2022-07-23T04:23:12;44.47;;;42.28;;
64157;SDS011;50449;51.528;5.076;2022-07-23T04:25:38;44.63;;;42.42;;
64157;SDS011;50449;51.528;5.076;2022-07-23T04:28:03;44.28;;;42.08;;
64157;SDS011;50449;51.528;5.076;2022-07-23T04:30:28;43.90;;;41.30;;
64157;SDS011;50449;51.528;5.076;2022-07-23T04:32:54;42.22;;;40.00;;
64157;SDS011;50449;51.528;5.076;2022-07-23T04:35:20;43.83;;;41.63;;
64157;SDS011;50449;51.528;5.076;2022-07-23T04:37:45;44.15;;;41.95;;
64157;SDS011;50449;51.528;5.076;2022-07-23T04:40:11;44.10;;;41.85;;
64157;SDS011;50449;51.528;5.076;2022-07-23T04:42:37;43.83;;;41.63;;
64157;SDS011;50449;51.528;5.076;2022-07-23T04:45:03;46.22;;;43.92;;
64157;SDS011;50449;51.528;5.076;2022-07-23T04:47:29;45.35;;;43.10;;
64157;SDS011;50449;51.528;5.076;2022-07-23T04:49:55;45.13;;;42.92;;
64157;SDS011;50449;51.528;5.076;2022-07-23T04:52:20;44.47;;;42.05;;
64157;SDS011;50449;51.528;5.076;2022-07-23T04:54:46;44.08;;;41.88;;
64157;SDS011;50449;51.528;5.076;2022-07-23T04:57:11;44.42;;;42.17;;
64157;SDS011;50449;51.528;5.076;2022-07-23T04:59:37;45.17;;;42.88;;
64157;SDS011;50449;51.528;5.076;2022-07-23T05:02:02;44.00;;;41.80;;
64157;SDS011;50449;51.528;5.076;2022-07-23T05:04:27;42.90;;;40.80;;
64157;SDS011;50449;51.528;5.076;2022-07-23T05:06:53;43.67;;;41.58;;
64157;SDS011;50449;51.528;5.076;2022-07-23T05:09:18;44.00;;;41.80;;
64157;SDS011;50449;51.528;5.076;2022-07-23T05:11:43;45.10;;;42.80;;
64157;SDS011;50449;51.528;5.076;2022-07-23T05:14:09;44.63;;;42.25;;
64157;SDS011;50449;51.528;5.076;2022-07-23T05:16:37;42.08;;;39.97;;
64157;SDS011;50449;51.528;5.076;2022-07-23T05:19:02;43.85;;;41.67;;
64157;SDS011;50449;51.528;5.076;2022-07-23T05:21:28;43.78;;;41.58;;
64157;SDS011;50449;51.528;5.076;2022-07-23T05:23:53;43.78;;;41.60;;
64157;SDS011;50449;51.528;5.076;2022-07-23T05:26:18;44.55;;;42.17;;
64157;SDS011;50449;51.528;5.076;2022-07-23T05:28:44;43.70;;;41.20;;
64157;SDS011;50449;51.528;5.076;2022-07-23T05:31:09;44.70;;;42.30;;
64157;SDS011;50449;51.528;5.076;2022-07-23T05:33:34;43.05;;;40.95;;
64157;SDS011;50449;51.528;5.076;2022-07-23T05:36:03;43.85;;;41.65;;
64157;SDS011;50449;51.528;5.076;2022-07-23T05:38:29;43.65;;;41.45;;
64157;SDS011;50449;51.528;5.076;2022-07-23T05:40:55;42.92;;;40.83;;
64157;SDS011;50449;51.528;5.076;2022-07-23T05:43:20;43.55;;;41.35;;
64157;SDS011;50449;51.528;5.076;2022-07-23T05:45:46;42.20;;;40.10;;
64157;SDS011;50449;51.528;5.076;2022-07-23T05:48:11;44.90;;;42.55;;
64157;SDS011;50449;51.528;5.076;2022-07-23T05:50:37;42.72;;;40.55;;
64157;SDS011;50449;51.528;5.076;2022-07-23T05:53:03;42.85;;;40.75;;
64157;SDS011;50449;51.528;5.076;2022-07-23T05:55:28;44.10;;;41.80;;
64157;SDS011;50449;51.528;5.076;2022-07-23T05:57:56;42.30;;;39.92;;
64157;SDS011;50449;51.528;5.076;2022-07-23T06:00:22;44.28;;;41.88;;
64157;SDS011;50449;51.528;5.076;2022-07-23T06:02:48;42.55;;;40.45;;
64157;SDS011;50449;51.528;5.076;2022-07-23T06:05:13;43.80;;;41.50;;
64157;SDS011;50449;51.528;5.076;2022-07-23T06:07:38;43.33;;;41.03;;
64157;SDS011;50449;51.528;5.076;2022-07-23T06:10:04;42.65;;;40.55;;
64157;SDS011;50449;51.528;5.076;2022-07-23T06:12:30;43.20;;;41.10;;
64157;SDS011;50449;51.528;5.076;2022-07-23T06:14:55;41.60;;;39.42;;
64157;SDS011;50449;51.528;5.076;2022-07-23T06:17:21;41.95;;;39.75;;
64157;SDS011;50449;51.528;5.076;2022-07-23T06:19:46;43.20;;;41.10;;
64157;SDS011;50449;51.528;5.076;2022-07-23T06:22:11;42.88;;;40.75;;
64157;SDS011;50449;51.528;5.076;2022-07-23T06:24:37;42.83;;;40.72;;
64157;SDS011;50449;51.528;5.076;2022-07-23T06:27:03;42.45;;;40.35;;
64157;SDS011;50449;51.528;5.076;2022-07-23T06:29:28;44.58;;;42.28;;
64157;SDS011;50449;51.528;5.076;2022-07-23T06:31:54;43.42;;;41.03;;
64157;SDS011;50449;51.528;5.076;2022-07-23T06:34:19;45.20;;;42.80;;
64157;SDS011;50449;51.528;5.076;2022-07-23T06:36:45;44.40;;;42.25;;
64157;SDS011;50449;51.528;5.076;2022-07-23T06:39:10;43.38;;;41.28;;
64157;SDS011;50449;51.528;5.076;2022-07-23T06:41:36;44.10;;;41.80;;
64157;SDS011;50449;51.528;5.076;2022-07-23T06:44:01;46.45;;;44.15;;
64157;SDS011;50449;51.528;5.076;2022-07-23T06:46:27;45.13;;;42.83;;
64157;SDS011;50449;51.528;5.076;2022-07-23T06:48:52;44.28;;;42.08;;
64157;SDS011;50449;51.528;5.076;2022-07-23T06:51:18;45.13;;;42.85;;
64157;SDS011;50449;51.528;5.076;2022-07-23T06:53:43;43.75;;;41.67;;
64157;SDS011;50449;51.528;5.076;2022-07-23T06:56:09;44.53;;;42.25;;
64157;SDS011;50449;51.528;5.076;2022-07-23T06:58:34;44.00;;;41.70;;
64157;SDS011;50449;51.528;5.076;2022-07-23T07:00:59;43.85;;;41.67;;
64157;SDS011;50449;51.528;5.076;2022-07-23T07:03:25;45.40;;;43.20;;
64157;SDS011;50449;51.528;5.076;2022-07-23T07:05:50;44.15;;;42.05;;
64157;SDS011;50449;51.528;5.076;2022-07-23T07:08:17;45.70;;;43.45;;
64157;SDS011;50449;51.528;5.076;2022-07-23T07:10:42;44.65;;;42.55;;
64157;SDS011;50449;51.528;5.076;2022-07-23T07:13:08;44.28;;;42.13;;
64157;SDS011;50449;51.528;5.076;2022-07-23T07:15:33;45.95;;;43.55;;
64157;SDS011;50449;51.528;5.076;2022-07-23T07:17:58;45.83;;;43.63;;
64157;SDS011;50449;51.528;5.076;2022-07-23T07:20:24;46.15;;;43.85;;
64157;SDS011;50449;51.528;5.076;2022-07-23T07:22:49;45.13;;;42.92;;
64157;SDS011;50449;51.528;5.076;2022-07-23T07:25:15;45.78;;;43.38;;
64157;SDS011;50449;51.528;5.076;2022-07-23T07:27:40;45.15;;;42.80;;
64157;SDS011;50449;51.528;5.076;2022-07-23T07:30:06;44.38;;;42.17;;
64157;SDS011;50449;51.528;5.076;2022-07-23T07:32:32;44.88;;;42.67;;
64157;SDS011;50449;51.528;5.076;2022-07-23T07:34:57;45.67;;;43.20;;
64157;SDS011;50449;51.528;5.076;2022-07-23T07:37:23;46.08;;;43.83;;
64157;SDS011;50449;51.528;5.076;2022-07-23T07:39:49;46.92;;;44.72;;
64157;SDS011;50449;51.528;5.076;2022-07-23T07:42:14;46.85;;;44.65;;
64157;SDS011;50449;51.528;5.076;2022-07-23T07:44:39;45.35;;;43.05;;
64157;SDS011;50449;51.528;5.076;2022-07-23T07:47:05;46.08;;;43.78;;
64157;SDS011;50449;51.528;5.076;2022-07-23T07:49:30;49.20;;;46.80;;
64157;SDS011;50449;51.528;5.076;2022-07-23T07:51:55;46.42;;;44.20;;
64157;SDS011;50449;51.528;5.076;2022-07-23T07:54:21;46.58;;;44.33;;
64157;SDS011;50449;51.528;5.076;2022-07-23T07:56:46;45.88;;;43.65;;
64157;SDS011;50449;51.528;5.076;2022-07-23T07:59:12;47.28;;;44.90;;
64157;SDS011;50449;51.528;5.076;2022-07-23T08:01:39;49.13;;;46.63;;
64157;SDS011;50449;51.528;5.076;2022-07-23T08:04:05;46.67;;;44.47;;
64157;SDS011;50449;51.528;5.076;2022-07-23T08:06:30;48.60;;;46.20;;
64157;SDS011;50449;51.528;5.076;2022-07-23T08:08:56;47.75;;;45.45;;
64157;SDS011;50449;51.528;5.076;2022-07-23T08:11:21;47.17;;;44.88;;
64157;SDS011;50449;51.528;5.076;2022-07-23T08:13:47;47.45;;;44.80;;
64157;SDS011;50449;51.528;5.076;2022-07-23T08:16:13;47.67;;;45.38;;
64157;SDS011;50449;51.528;5.076;2022-07-23T08:18:38;48.55;;;46.15;;
64157;SDS011;50449;51.528;5.076;2022-07-23T08:21:03;47.05;;;44.75;;
64157;SDS011;50449;51.528;5.076;2022-07-23T08:23:32;50.70;;;48.30;;
64157;SDS011;50449;51.528;5.076;2022-07-23T08:25:57;51.47;;;48.88;;
64157;SDS011;50449;51.528;5.076;2022-07-23T08:28:24;48.88;;;46.47;;
64157;SDS011;50449;51.528;5.076;2022-07-23T08:30:50;48.40;;;46.10;;
64157;SDS011;50449;51.528;5.076;2022-07-23T08:33:16;48.20;;;45.70;;
64157;SDS011;50449;51.528;5.076;2022-07-23T08:35:43;49.75;;;47.30;;
64157;SDS011;50449;51.528;5.076;2022-07-23T08:38:11;48.90;;;46.53;;
64157;SDS011;50449;51.528;5.076;2022-07-23T08:40:39;52.40;;;49.80;;
64157;SDS011;50449;51.528;5.076;2022-07-23T08:43:07;47.78;;;45.35;;
64157;SDS011;50449;51.528;5.076;2022-07-23T08:45:38;50.60;;;48.13;;
64157;SDS011;50449;51.528;5.076;2022-07-23T08:51:00;52.38;;;49.88;;
64157;SDS011;50449;51.528;5.076;2022-07-23T08:53:27;49.55;;;47.15;;
64157;SDS011;50449;51.528;5.076;2022-07-23T08:55:55;52.63;;;50.03;;
64157;SDS011;50449;51.528;5.076;2022-07-23T08:58:22;51.20;;;48.78;;
64157;SDS011;50449;51.528;5.076;2022-07-23T09:00:48;52.80;;;50.10;;
64157;SDS011;50449;51.528;5.076;2022-07-23T09:05:43;55.30;;;52.60;;
64157;SDS011;50449;51.528;5.076;2022-07-23T09:10:52;53.80;;;51.17;;
64157;SDS011;50449;51.528;5.076;2022-07-23T09:13:38;54.80;;;52.20;;
64157;SDS011;50449;51.528;5.076;2022-07-23T09:16:20;54.83;;;52.03;;
64157;SDS011;50449;51.528;5.076;2022-07-23T09:21:23;56.33;;;53.72;;
64157;SDS011;50449;51.528;5.076;2022-07-23T09:26:27;57.45;;;54.75;;
64157;SDS011;50449;51.528;5.076;2022-07-23T09:29:04;54.03;;;51.53;;
64157;SDS011;50449;51.528;5.076;2022-07-23T09:31:31;53.65;;;51.15;;
64157;SDS011;50449;51.528;5.076;2022-07-23T09:34:08;54.22;;;51.63;;
64157;SDS011;50449;51.528;5.076;2022-07-23T09:36:35;56.22;;;53.63;;
64157;SDS011;50449;51.528;5.076;2022-07-23T09:39:01;57.20;;;54.40;;
64157;SDS011;50449;51.528;5.076;2022-07-23T09:41:33;60.50;;;57.70;;
64157;SDS011;50449;51.528;5.076;2022-07-23T09:44:10;59.15;;;56.35;;
64157;SDS011;50449;51.528;5.076;2022-07-23T09:46:38;59.15;;;56.30;;
64157;SDS011;50449;51.528;5.076;2022-07-23T09:51:59;62.28;;;59.28;;
64157;SDS011;50449;51.528;5.076;2022-07-23T09:54:37;60.50;;;57.70;;
64157;SDS011;50449;51.528;5.076;2022-07-23T09:57:09;63.25;;;60.35;;
64157;SDS011;50449;51.528;5.076;2022-07-23T09:59:39;64.32;;;61.38;;
64157;SDS011;50449;51.528;5.076;2022-07-23T10:02:07;62.30;;;59.40;;
64157;SDS011;50449;51.528;5.076;2022-07-23T10:04:37;61.38;;;58.50;;
64157;SDS011;50449;51.528;5.076;2022-07-23T10:07:04;62.83;;;59.92;;
64157;SDS011;50449;51.528;5.076;2022-07-23T10:09:33;62.78;;;59.90;;
64157;SDS011;50449;51.528;5.076;2022-07-23T10:12:01;62.35;;;59.45;;
64157;SDS011;50449;51.528;5.076;2022-07-23T10:14:43;66.90;;;63.90;;
64157;SDS011;50449;51.528;5.076;2022-07-23T10:17:10;65.60;;;62.40;;
64157;SDS011;50449;51.528;5.076;2022-07-23T10:19:36;63.15;;;60.25;;
64157;SDS011;50449;51.528;5.076;2022-07-23T10:22:04;66.75;;;63.75;;
64157;SDS011;50449;51.528;5.076;2022-07-23T10:27:39;64.35;;;61.35;;
64157;SDS011;50449;51.528;5.076;2022-07-23T10:36:15;66.80;;;63.72;;
64157;SDS011;50449;51.528;5.076;2022-07-23T10:41:36;66.72;;;63.72;;
64157;SDS011;50449;51.528;5.076;2022-07-23T10:49:32;69.70;;;65.63;;
64157;SDS011;50449;51.528;5.076;2022-07-23T10:54:43;68.68;;;65.30;;
64157;SDS011;50449;51.528;5.076;2022-07-23T10:57:14;71.05;;;67.32;;
64157;SDS011;50449;51.528;5.076;2022-07-23T11:02:28;69.00;;;65.73;;
64157;SDS011;50449;51.528;5.076;2022-07-23T11:04:56;68.90;;;65.60;;
64157;SDS011;50449;51.528;5.076;2022-07-23T11:07:24;70.85;;;67.55;;
64157;SDS011;50449;51.528;5.076;2022-07-23T11:09:50;69.07;;;65.85;;
64157;SDS011;50449;51.528;5.076;2022-07-23T11:17:32;73.38;;;69.75;;
64157;SDS011;50449;51.528;5.076;2022-07-23T11:25:08;76.78;;;73.28;;
64157;SDS011;50449;51.528;5.076;2022-07-23T11:27:38;73.10;;;69.80;;
64157;SDS011;50449;51.528;5.076;2022-07-23T11:30:09;75.70;;;72.30;;
64157;SDS011;50449;51.528;5.076;2022-07-23T11:32:37;73.43;;;70.07;;
64157;SDS011;50449;51.528;5.076;2022-07-23T11:35:26;73.53;;;70.15;;
64157;SDS011;50449;51.528;5.076;2022-07-23T11:40:19;74.47;;;71.07;;
64157;SDS011;50449;51.528;5.076;2022-07-23T11:45:20;75.40;;;72.07;;
64157;SDS011;50449;51.528;5.076;2022-07-23T11:47:46;75.63;;;72.28;;
64157;SDS011;50449;51.528;5.076;2022-07-23T11:50:12;78.45;;;74.90;;
64157;SDS011;50449;51.528;5.076;2022-07-23T11:52:38;79.30;;;75.80;;
64157;SDS011;50449;51.528;5.076;2022-07-23T11:55:05;79.05;;;75.45;;
64157;SDS011;50449;51.528;5.076;2022-07-23T11:57:33;79.10;;;75.50;;
64157;SDS011;50449;51.528;5.076;2022-07-23T12:00:13;79.85;;;76.15;;
64157;SDS011;50449;51.528;5.076;2022-07-23T12:02:45;75.50;;;72.10;;
64157;SDS011;50449;51.528;5.076;2022-07-23T12:05:12;78.90;;;75.25;;
64157;SDS011;50449;51.528;5.076;2022-07-23T12:07:40;76.70;;;73.10;;
64157;SDS011;50449;51.528;5.076;2022-07-23T12:12:43;76.82;;;73.43;;
64157;SDS011;50449;51.528;5.076;2022-07-23T12:15:21;77.43;;;73.97;;
64157;SDS011;50449;51.528;5.076;2022-07-23T12:17:49;78.88;;;75.15;;
64157;SDS011;50449;51.528;5.076;2022-07-23T12:20:17;80.77;;;77.07;;
64157;SDS011;50449;51.528;5.076;2022-07-23T12:22:48;78.45;;;74.95;;
64157;SDS011;50449;51.528;5.076;2022-07-23T12:25:17;77.47;;;73.88;;
64157;SDS011;50449;51.528;5.076;2022-07-23T12:27:57;81.47;;;77.65;;
64157;SDS011;50449;51.528;5.076;2022-07-23T12:30:26;79.82;;;76.13;;
64157;SDS011;50449;51.528;5.076;2022-07-23T12:32:54;79.38;;;75.68;;
64157;SDS011;50449;51.528;5.076;2022-07-23T12:35:22;80.70;;;77.00;;
64157;SDS011;50449;51.528;5.076;2022-07-23T12:37:49;79.22;;;75.65;;
64157;SDS011;50449;51.528;5.076;2022-07-23T12:51:20;81.45;;;77.75;;
64157;SDS011;50449;51.528;5.076;2022-07-23T12:53:49;79.15;;;75.65;;
64157;SDS011;50449;51.528;5.076;2022-07-23T12:56:20;80.18;;;76.57;;
64157;SDS011;50449;51.528;5.076;2022-07-23T12:58:53;83.28;;;79.55;;
64157;SDS011;50449;51.528;5.076;2022-07-23T13:03:54;81.22;;;77.53;;
64157;SDS011;50449;51.528;5.076;2022-07-23T13:06:25;79.53;;;75.82;;
64157;SDS011;50449;51.528;5.076;2022-07-23T13:08:51;84.57;;;80.80;;
64157;SDS011;50449;51.528;5.076;2022-07-23T13:11:17;80.93;;;77.20;;
64157;SDS011;50449;51.528;5.076;2022-07-23T13:13:42;83.45;;;79.75;;
64157;SDS011;50449;51.528;5.076;2022-07-23T13:16:08;85.40;;;81.53;;
64157;SDS011;50449;51.528;5.076;2022-07-23T13:18:33;83.03;;;79.35;;
64157;SDS011;50449;51.528;5.076;2022-07-23T13:20:59;83.03;;;79.38;;
64157;SDS011;50449;51.528;5.076;2022-07-23T13:23:24;84.28;;;80.47;;
64157;SDS011;50449;51.528;5.076;2022-07-23T13:25:50;88.68;;;84.78;;
64157;SDS011;50449;51.528;5.076;2022-07-23T13:28:16;90.30;;;86.30;;
64157;SDS011;50449;51.528;5.076;2022-07-23T13:30:43;81.07;;;77.47;;
64157;SDS011;50449;51.528;5.076;2022-07-23T13:33:10;85.88;;;81.97;;
64157;SDS011;50449;51.528;5.076;2022-07-23T13:35:36;83.10;;;79.43;;
64157;SDS011;50449;51.528;5.076;2022-07-23T13:38:02;83.93;;;80.13;;
64157;SDS011;50449;51.528;5.076;2022-07-23T13:40:29;85.80;;;82.03;;
64157;SDS011;50449;51.528;5.076;2022-07-23T13:42:54;85.07;;;81.28;;
64157;SDS011;50449;51.528;5.076;2022-07-23T13:45:20;85.40;;;81.55;;
64157;SDS011;50449;51.528;5.076;2022-07-23T13:47:46;86.97;;;83.13;;
64157;SDS011;50449;51.528;5.076;2022-07-23T13:50:11;89.55;;;85.63;;
64157;SDS011;50449;51.528;5.076;2022-07-23T13:52:36;86.07;;;82.10;;
64157;SDS011;50449;51.528;5.076;2022-07-23T13:55:05;87.50;;;83.60;;
64157;SDS011;50449;51.528;5.076;2022-07-23T13:57:31;86.25;;;82.45;;
64157;SDS011;50449;51.528;5.076;2022-07-23T13:59:57;86.18;;;82.40;;
64157;SDS011;50449;51.528;5.076;2022-07-23T14:02:23;87.00;;;83.03;;
64157;SDS011;50449;51.528;5.076;2022-07-23T14:04:48;88.32;;;84.43;;
64157;SDS011;50449;51.528;5.076;2022-07-23T14:07:14;85.95;;;82.15;;
64157;SDS011;50449;51.528;5.076;2022-07-23T14:09:40;85.60;;;81.70;;
64157;SDS011;50449;51.528;5.076;2022-07-23T14:12:06;87.80;;;83.90;;
64157;SDS011;50449;51.528;5.076;2022-07-23T14:14:31;87.90;;;83.93;;
64157;SDS011;50449;51.528;5.076;2022-07-23T14:16:57;89.78;;;85.78;;
64157;SDS011;50449;51.528;5.076;2022-07-23T14:19:23;86.97;;;83.05;;
64157;SDS011;50449;51.528;5.076;2022-07-23T14:21:48;90.35;;;86.38;;
64157;SDS011;50449;51.528;5.076;2022-07-23T14:24:14;88.97;;;84.95;;
64157;SDS011;50449;51.528;5.076;2022-07-23T14:26:40;89.13;;;85.13;;
64157;SDS011;50449;51.528;5.076;2022-07-23T14:29:06;91.50;;;87.43;;
64157;SDS011;50449;51.528;5.076;2022-07-23T14:31:31;89.47;;;85.50;;
64157;SDS011;50449;51.528;5.076;2022-07-23T14:33:57;88.95;;;84.95;;
64157;SDS011;50449;51.528;5.076;2022-07-23T14:36:22;89.47;;;85.47;;
64157;SDS011;50449;51.528;5.076;2022-07-23T14:38:49;87.47;;;83.57;;
64157;SDS011;50449;51.528;5.076;2022-07-23T14:41:14;92.72;;;88.63;;
64157;SDS011;50449;51.528;5.076;2022-07-23T14:43:40;83.97;;;80.25;;
64157;SDS011;50449;51.528;5.076;2022-07-23T14:46:06;87.90;;;83.90;;
64157;SDS011;50449;51.528;5.076;2022-07-23T14:48:34;88.88;;;84.97;;
64157;SDS011;50449;51.528;5.076;2022-07-23T14:51:01;89.78;;;85.80;;
64157;SDS011;50449;51.528;5.076;2022-07-23T14:53:26;88.22;;;84.32;;
64157;SDS011;50449;51.528;5.076;2022-07-23T14:55:51;90.40;;;86.50;;
64157;SDS011;50449;51.528;5.076;2022-07-23T14:58:17;92.65;;;88.55;;
64157;SDS011;50449;51.528;5.076;2022-07-23T15:00:42;88.97;;;84.88;;
64157;SDS011;50449;51.528;5.076;2022-07-23T15:03:08;88.15;;;84.30;;
64157;SDS011;50449;51.528;5.076;2022-07-23T15:05:33;86.65;;;82.82;;
64157;SDS011;50449;51.528;5.076;2022-07-23T15:07:59;88.18;;;84.35;;
64157;SDS011;50449;51.528;5.076;2022-07-23T15:10:24;90.85;;;86.78;;
64157;SDS011;50449;51.528;5.076;2022-07-23T15:12:50;88.65;;;84.65;;
64157;SDS011;50449;51.528;5.076;2022-07-23T15:15:15;90.47;;;86.47;;
64157;SDS011;50449;51.528;5.076;2022-07-23T15:17:41;89.45;;;85.50;;
64157;SDS011;50449;51.528;5.076;2022-07-23T15:20:06;88.65;;;84.45;;
64157;SDS011;50449;51.528;5.076;2022-07-23T15:22:32;89.25;;;85.25;;
64157;SDS011;50449;51.528;5.076;2022-07-23T15:24:58;90.00;;;85.90;;
64157;SDS011;50449;51.528;5.076;2022-07-23T15:27:23;86.05;;;82.13;;
64157;SDS011;50449;51.528;5.076;2022-07-23T15:29:49;92.93;;;88.72;;